Time;durP1;ratioP1;P1;durP2;ratioP2;P2;SDS_P1;SDS_P2;PMS_P1;PMS_P2;Temp;Humidity;BMP_temperature;BMP_pressure;BME280_temperature;BME280_humidity;BME280_pressure;Samples;Min_cycle;Max_cycle;Signal;HPM_P1;HPM_P2
2023/06/17 00:00:41;;;;;;;0.00;0.00;;;16.80;78.70;;;;;;5032398;28;20045;-67
2023/06/17 00:03:07;;;;;;;0.00;0.00;;;16.80;78.30;;;;;;5032876;28;20128;-67
2023/06/17 00:05:32;;;;;;;0.00;0.00;;;16.80;77.90;;;;;;5032868;28;20212;-66
2023/06/17 00:07:58;;;;;;;0.00;0.00;;;16.80;77.90;;;;;;5033823;28;20033;-67
2023/06/17 00:10:23;;;;;;;0.00;0.00;;;16.70;78.20;;;;;;5033240;28;20283;-66
2023/06/17 00:12:49;;;;;;;0.00;0.00;;;16.70;77.80;;;;;;5030144;28;20046;-67
2023/06/17 00:15:16;;;;;;;0.00;0.00;;;16.70;78.70;;;;;;5012747;28;20155;-66
2023/06/17 00:17:46;;;;;;;0.00;0.00;;;16.60;77.90;;;;;;5012791;28;20096;-66
2023/06/17 00:20:12;;;;;;;0.00;0.00;;;16.60;78.20;;;;;;5012757;28;20048;-66
2023/06/17 00:22:40;;;;;;;0.00;0.00;;;16.60;78.00;;;;;;5012914;28;20046;-66
2023/06/17 00:25:06;;;;;;;0.00;0.00;;;16.60;77.40;;;;;;5012754;28;20042;-67
2023/06/17 00:27:32;;;;;;;0.00;0.00;;;16.60;77.00;;;;;;5012320;28;20038;-66
2023/06/17 00:29:59;;;;;;;0.00;0.00;;;16.60;77.10;;;;;;5012804;28;20092;-67
2023/06/17 00:32:26;;;;;;;0.00;0.00;;;16.70;77.10;;;;;;5012374;28;20109;-66
2023/06/17 00:34:53;;;;;;;0.00;0.00;;;16.70;77.20;;;;;;5012384;28;20455;-66
2023/06/17 00:37:18;;;;;;;0.00;0.00;;;16.60;77.80;;;;;;5012554;28;20041;-66
2023/06/17 00:39:44;;;;;;;0.00;0.00;;;16.60;78.00;;;;;;4987773;28;20132;-67
2023/06/17 00:42:11;;;;;;;0.00;0.00;;;16.60;77.60;;;;;;5032127;28;20100;-66
2023/06/17 00:44:39;;;;;;;0.00;0.00;;;16.60;77.80;;;;;;5032133;28;20045;-66
2023/06/17 00:47:05;;;;;;;0.22;0.22;;;16.50;78.20;;;;;;5031621;28;20053;-66
2023/06/17 00:49:36;;;;;;;0.00;0.00;;;16.50;79.40;;;;;;5036127;28;20041;-67
2023/06/17 00:52:07;;;;;;;0.00;0.00;;;16.40;79.40;;;;;;5051520;28;20521;-67
2023/06/17 00:54:38;;;;;;;0.00;0.00;;;16.30;78.70;;;;;;5052205;28;20539;-66
2023/06/17 00:57:09;;;;;;;0.00;0.00;;;16.30;79.10;;;;;;5051346;28;20513;-66
2023/06/17 00:59:37;;;;;;;0.00;0.00;;;16.30;79.50;;;;;;5051865;28;20053;-66
2023/06/17 01:02:04;;;;;;;0.00;0.00;;;16.30;80.00;;;;;;5051354;28;20516;-66
2023/06/17 01:04:31;;;;;;;0.00;0.00;;;16.20;80.60;;;;;;5050201;28;20037;-66
2023/06/17 01:07:23;;;;;;;0.00;0.00;;;16.20;80.10;;;;;;5043035;28;20103;-67
2023/06/17 01:09:55;;;;;;;0.00;0.00;;;16.20;79.50;;;;;;5031591;28;20061;-66
2023/06/17 01:12:24;;;;;;;0.00;0.00;;;16.10;80.10;;;;;;5050962;28;20584;-66
2023/06/17 01:14:53;;;;;;;0.00;0.00;;;16.10;79.90;;;;;;5050846;28;20086;-66
2023/06/17 01:17:19;;;;;;;0.03;0.03;;;16.10;80.00;;;;;;5051148;28;20532;-67
2023/06/17 01:19:48;;;;;;;0.00;0.00;;;16.20;80.10;;;;;;5051260;28;20045;-66
2023/06/17 01:22:16;;;;;;;0.00;0.00;;;16.20;80.00;;;;;;5047597;28;20049;-66
2023/06/17 01:24:45;;;;;;;0.00;0.00;;;16.10;79.10;;;;;;5031035;28;20060;-66
2023/06/17 01:27:11;;;;;;;0.10;0.10;;;16.10;79.00;;;;;;5047055;28;20041;-66
2023/06/17 01:29:37;;;;;;;0.00;0.00;;;16.10;79.30;;;;;;5049649;28;20847;-66
2023/06/17 01:32:05;;;;;;;0.00;0.00;;;16.10;79.20;;;;;;5049917;28;20047;-66
2023/06/17 01:34:43;;;;;;;0.00;0.00;;;16.10;80.00;;;;;;5049908;28;20120;-66
2023/06/17 01:37:13;;;;;;;0.00;0.00;;;16.10;80.90;;;;;;5048266;28;20048;-66
2023/06/17 01:39:44;;;;;;;0.00;0.00;;;16.10;81.40;;;;;;5049866;28;20136;-66
2023/06/17 01:42:18;;;;;;;0.00;0.00;;;16.10;81.00;;;;;;5030318;28;20095;-66
2023/06/17 01:44:44;;;;;;;0.00;0.00;;;16.00;80.50;;;;;;5049774;28;20098;-66
2023/06/17 01:47:10;;;;;;;0.08;0.08;;;16.00;81.40;;;;;;5049397;28;20048;-66
2023/06/17 01:49:37;;;;;;;0.00;0.00;;;15.90;81.60;;;;;;5049720;28;20397;-67
2023/06/17 01:52:04;;;;;;;0.00;0.00;;;15.90;81.30;;;;;;5049728;28;20072;-66
2023/06/17 01:54:29;;;;;;;0.00;0.00;;;15.90;81.30;;;;;;5049652;28;20088;-66
2023/06/17 01:56:55;;;;;;;0.00;0.00;;;15.80;81.70;;;;;;5049593;28;20072;-66
2023/06/17 01:59:20;;;;;;;0.00;0.00;;;15.80;81.60;;;;;;5049424;28;20037;-65
2023/06/17 02:01:46;;;;;;;0.00;0.00;;;15.80;81.20;;;;;;5049386;28;20119;-66
2023/06/17 02:04:11;;;;;;;0.00;0.00;;;15.80;80.60;;;;;;5031666;28;20033;-66
2023/06/17 02:06:37;;;;;;;0.00;0.00;;;15.80;80.10;;;;;;5048771;28;20043;-66
2023/06/17 02:09:03;;;;;;;0.00;0.00;;;15.90;80.00;;;;;;5049065;28;20033;-67
2023/06/17 02:11:28;;;;;;;0.00;0.00;;;15.90;80.00;;;;;;5049577;28;20429;-66
2023/06/17 02:13:54;;;;;;;0.00;0.00;;;15.90;79.70;;;;;;5050115;28;20045;-67
2023/06/17 02:16:20;;;;;;;0.00;0.00;;;15.90;79.90;;;;;;5050445;28;20128;-66
2023/06/17 02:18:47;;;;;;;0.00;0.00;;;15.90;79.60;;;;;;5037014;28;20045;-66
2023/06/17 02:21:13;;;;;;;0.00;0.00;;;16.00;79.40;;;;;;5030272;28;20057;-66
2023/06/17 02:23:38;;;;;;;0.00;0.00;;;16.10;79.30;;;;;;5012624;28;20208;-66
2023/06/17 02:26:04;;;;;;;0.00;0.00;;;16.10;79.50;;;;;;5030445;28;20050;-66
2023/06/17 02:28:30;;;;;;;0.00;0.00;;;16.10;79.30;;;;;;5030256;28;20046;-66
2023/06/17 02:30:55;;;;;;;0.00;0.00;;;16.10;79.50;;;;;;5030036;28;20049;-66
2023/06/17 02:33:22;;;;;;;0.00;0.00;;;16.10;79.30;;;;;;5030223;28;20045;-66
2023/06/17 02:35:48;;;;;;;0.00;0.00;;;16.20;79.20;;;;;;5030339;28;20053;-66
2023/06/17 02:38:15;;;;;;;0.00;0.00;;;16.20;80.00;;;;;;5029818;28;20078;-66
2023/06/17 02:40:40;;;;;;;0.00;0.00;;;16.20;79.50;;;;;;5029951;28;20521;-66
2023/06/17 02:43:07;;;;;;;0.00;0.00;;;16.20;79.50;;;;;;5029749;28;20050;-66
2023/06/17 02:45:32;;;;;;;0.00;0.00;;;16.30;80.00;;;;;;5012208;28;20081;-66
2023/06/17 02:47:58;;;;;;;0.00;0.00;;;16.20;80.20;;;;;;5011961;28;20045;-66
2023/06/17 02:50:25;;;;;;;0.00;0.00;;;16.20;80.80;;;;;;5029657;28;20509;-66
2023/06/17 02:52:55;;;;;;;0.00;0.00;;;16.10;80.40;;;;;;5029752;28;20055;-66
2023/06/17 02:55:22;;;;;;;0.00;0.00;;;16.10;80.40;;;;;;5029641;28;20050;-66
2023/06/17 02:57:48;;;;;;;0.00;0.00;;;16.10;81.20;;;;;;5029648;28;20078;-66
2023/06/17 03:00:13;;;;;;;0.00;0.00;;;16.20;80.90;;;;;;5029656;28;20045;-66
2023/06/17 03:02:39;;;;;;;0.00;0.00;;;16.20;80.70;;;;;;5029569;28;20038;-67
2023/06/17 03:05:07;;;;;;;0.00;0.00;;;16.20;81.00;;;;;;5029590;28;20088;-66
2023/06/17 03:07:36;;;;;;;0.00;0.00;;;16.20;80.60;;;;;;5043256;28;20049;-67
2023/06/17 03:10:02;;;;;;;0.00;0.00;;;16.20;81.80;;;;;;5049542;28;20049;-65
2023/06/17 03:12:28;;;;;;;0.00;0.00;;;16.20;81.60;;;;;;5049162;28;20041;-67
2023/06/17 03:14:54;;;;;;;0.00;0.00;;;16.20;81.70;;;;;;5049530;28;20047;-66
2023/06/17 03:17:21;;;;;;;0.00;0.00;;;16.30;81.90;;;;;;5048509;28;20119;-66
2023/06/17 03:19:47;;;;;;;0.05;0.05;;;16.30;82.60;;;;;;5047944;28;20037;-66
2023/06/17 03:22:12;;;;;;;0.00;0.00;;;16.30;82.40;;;;;;5048206;28;20584;-66
2023/06/17 03:24:38;;;;;;;0.00;0.00;;;16.30;82.10;;;;;;5031119;28;20111;-66
2023/06/17 03:27:03;;;;;;;0.00;0.00;;;16.30;82.60;;;;;;5029972;28;20390;-66
2023/06/17 03:29:30;;;;;;;0.00;0.00;;;16.30;83.00;;;;;;5034269;28;20040;-66
2023/06/17 03:31:56;;;;;;;0.00;0.00;;;16.20;84.00;;;;;;5031371;28;20524;-66
2023/06/17 03:34:23;;;;;;;0.00;0.00;;;16.20;84.00;;;;;;5048714;28;20512;-66
2023/06/17 03:36:50;;;;;;;0.03;0.03;;;16.30;84.60;;;;;;5031375;28;20084;-66
2023/06/17 03:39:15;;;;;;;0.15;0.15;;;16.20;84.70;;;;;;5048775;28;20135;-66
2023/06/17 03:41:41;;;;;;;0.00;0.00;;;16.20;85.20;;;;;;5043632;28;20124;-66
2023/06/17 03:44:06;;;;;;;0.00;0.00;;;16.20;85.10;;;;;;5029111;28;20042;-66
2023/06/17 03:46:32;;;;;;;2.75;0.57;;;16.20;85.80;;;;;;5028633;28;20037;-67
2023/06/17 03:48:57;;;;;;;0.03;0.03;;;16.20;86.00;;;;;;5029006;28;20038;-67
2023/06/17 03:51:23;;;;;;;0.00;0.00;;;16.10;85.60;;;;;;5028854;28;20042;-67
2023/06/17 03:53:48;;;;;;;0.00;0.00;;;16.20;85.80;;;;;;5029715;28;20041;-66
2023/06/17 03:56:14;;;;;;;0.05;0.05;;;16.10;86.00;;;;;;5029858;28;20048;-66
2023/06/17 03:58:40;;;;;;;0.20;0.20;;;16.10;86.50;;;;;;5029757;28;20041;-66
2023/06/17 04:01:12;;;;;;;0.00;0.00;;;16.10;86.60;;;;;;5029721;28;20057;-66
2023/06/17 04:03:38;;;;;;;0.00;0.00;;;16.10;86.90;;;;;;5029357;28;20457;-67
2023/06/17 04:06:04;;;;;;;1.35;0.85;;;16.10;86.90;;;;;;5028727;28;20049;-66
2023/06/17 04:08:32;;;;;;;0.00;0.00;;;16.10;87.20;;;;;;5028959;28;20037;-66
2023/06/17 04:10:59;;;;;;;0.10;0.10;;;16.10;87.40;;;;;;5011370;28;21004;-66
2023/06/17 04:13:25;;;;;;;0.00;0.00;;;16.10;87.80;;;;;;5028658;28;20467;-66
2023/06/17 04:15:50;;;;;;;0.25;0.25;;;16.10;88.10;;;;;;5028455;28;20072;-66
2023/06/17 04:18:16;;;;;;;50.38;1.38;;;16.00;88.50;;;;;;5034766;28;20037;-66
2023/06/17 04:20:42;;;;;;;0.00;0.00;;;16.10;88.50;;;;;;5048829;28;20072;-66
2023/06/17 04:23:07;;;;;;;0.28;0.28;;;16.10;88.40;;;;;;5048376;28;20044;-66
2023/06/17 04:25:36;;;;;;;0.03;0.03;;;16.10;88.50;;;;;;5045214;28;20041;-66
2023/06/17 04:28:03;;;;;;;0.55;0.32;;;16.20;88.30;;;;;;5048639;28;20044;-66
2023/06/17 04:30:30;;;;;;;0.00;0.00;;;16.20;87.70;;;;;;5033268;28;20045;-66
2023/06/17 04:33:00;;;;;;;0.08;0.08;;;16.20;87.30;;;;;;5051317;28;20087;-66
2023/06/17 04:35:26;;;;;;;0.00;0.00;;;16.30;87.10;;;;;;5051646;28;20139;-66
2023/06/17 04:37:55;;;;;;;0.10;0.10;;;16.30;87.30;;;;;;5051125;28;20056;-66
2023/06/17 04:40:25;;;;;;;1.35;0.65;;;16.30;86.80;;;;;;5051376;28;20044;-66
2023/06/17 04:42:51;;;;;;;0.10;0.10;;;16.20;87.80;;;;;;5043567;28;20033;-66
2023/06/17 04:45:17;;;;;;;0.80;0.40;;;16.20;87.80;;;;;;5031780;28;20045;-66
2023/06/17 04:47:44;;;;;;;0.10;0.10;;;16.20;88.00;;;;;;5046442;28;20599;-66
2023/06/17 04:50:12;;;;;;;0.10;0.10;;;16.20;88.20;;;;;;5038879;28;20056;-65
2023/06/17 04:52:42;;;;;;;0.00;0.00;;;16.20;88.00;;;;;;5032155;28;20090;-66
2023/06/17 04:55:11;;;;;;;0.25;0.25;;;16.30;87.90;;;;;;5031514;28;20393;-66
2023/06/17 04:57:36;;;;;;;0.08;0.08;;;16.20;87.70;;;;;;5031860;28;20049;-66
2023/06/17 05:00:05;;;;;;;0.00;0.00;;;16.20;87.80;;;;;;5031934;28;20114;-66
2023/06/17 05:02:31;;;;;;;0.00;0.00;;;16.30;87.60;;;;;;5014469;28;20045;-66
2023/06/17 05:04:56;;;;;;;1.65;0.47;;;16.30;87.50;;;;;;5045860;28;20045;-66
2023/06/17 05:07:22;;;;;;;0.00;0.00;;;16.30;87.10;;;;;;5051216;28;20144;-66
2023/06/17 05:09:47;;;;;;;0.10;0.10;;;16.30;87.00;;;;;;5030553;28;20053;-66
2023/06/17 05:12:13;;;;;;;0.43;0.43;;;16.30;87.40;;;;;;5060714;28;20183;-65
2023/06/17 05:14:39;;;;;;;0.00;0.00;;;16.40;87.30;;;;;;5051459;28;20383;-66
2023/06/17 05:17:04;;;;;;;0.00;0.00;;;16.40;87.30;;;;;;5033434;28;20390;-66
2023/06/17 05:19:30;;;;;;;0.00;0.00;;;16.40;87.30;;;;;;5031977;28;20128;-66
2023/06/17 05:21:55;;;;;;;0.00;0.00;;;16.50;87.10;;;;;;5031576;28;20046;-66
2023/06/17 05:24:21;;;;;;;0.20;0.20;;;16.50;86.90;;;;;;5031575;28;20044;-66
2023/06/17 05:26:47;;;;;;;0.00;0.00;;;16.50;86.80;;;;;;5038873;28;20048;-66
2023/06/17 05:29:12;;;;;;;0.00;0.00;;;16.50;87.20;;;;;;5049459;28;20037;-66
2023/06/17 05:31:38;;;;;;;1.10;0.75;;;16.50;87.30;;;;;;5050034;28;20072;-66
2023/06/17 05:34:03;;;;;;;0.05;0.05;;;16.50;87.40;;;;;;5049922;28;20045;-66
2023/06/17 05:36:29;;;;;;;0.10;0.10;;;16.50;87.10;;;;;;5049638;28;20033;-66
2023/06/17 05:38:55;;;;;;;0.00;0.00;;;16.50;86.90;;;;;;5049362;28;20556;-66
2023/06/17 05:41:21;;;;;;;0.20;0.20;;;16.60;86.60;;;;;;5048318;28;20041;-66
2023/06/17 05:43:48;;;;;;;6.80;1.20;;;16.50;87.20;;;;;;5049755;28;20512;-66
2023/06/17 05:46:14;;;;;;;0.00;0.00;;;16.50;87.30;;;;;;5049808;28;20091;-65
2023/06/17 05:48:40;;;;;;;0.30;0.30;;;16.50;87.10;;;;;;5049510;28;20582;-65
2023/06/17 05:51:05;;;;;;;1.55;0.63;;;16.60;87.00;;;;;;5049276;28;20139;-66
2023/06/17 05:53:31;;;;;;;0.10;0.10;;;16.60;86.40;;;;;;5049600;28;20044;-66
2023/06/17 05:55:56;;;;;;;0.50;0.50;;;16.60;86.60;;;;;;5049470;28;20069;-66
2023/06/17 05:58:22;;;;;;;0.20;0.20;;;16.60;86.20;;;;;;5049757;28;20170;-66
2023/06/17 06:00:48;;;;;;;0.00;0.00;;;16.70;86.30;;;;;;5031382;28;20049;-65
2023/06/17 06:03:13;;;;;;;0.00;0.00;;;16.70;85.70;;;;;;5049470;28;20103;-66
2023/06/17 06:05:39;;;;;;;0.00;0.00;;;16.80;84.80;;;;;;5045458;28;20033;-66
2023/06/17 06:08:04;;;;;;;0.10;0.10;;;16.80;84.90;;;;;;5047223;28;20049;-66
2023/06/17 06:10:30;;;;;;;0.00;0.00;;;16.90;85.20;;;;;;5020602;28;20061;-65
2023/06/17 06:12:56;;;;;;;0.00;0.00;;;17.00;84.70;;;;;;5050287;28;20063;-66
2023/06/17 06:15:23;;;;;;;0.10;0.10;;;17.00;84.50;;;;;;5050473;28;20041;-66
2023/06/17 06:17:48;;;;;;;0.00;0.00;;;17.10;84.20;;;;;;5050602;28;20049;-67
2023/06/17 06:20:14;;;;;;;0.00;0.00;;;17.10;84.60;;;;;;5050096;28;20051;-66
2023/06/17 06:22:40;;;;;;;0.03;0.03;;;17.20;84.30;;;;;;5049710;28;20029;-66
2023/06/17 06:25:05;;;;;;;0.05;0.05;;;17.30;84.50;;;;;;5049400;28;20041;-66
2023/06/17 06:27:31;;;;;;;2.53;1.10;;;17.30;84.40;;;;;;5050063;28;20052;-66
2023/06/17 06:29:57;;;;;;;1.55;0.30;;;17.30;84.10;;;;;;5044087;28;20112;-66
2023/06/17 06:32:22;;;;;;;0.00;0.00;;;17.40;83.90;;;;;;5049646;28;20045;-66
2023/06/17 06:34:48;;;;;;;0.00;0.00;;;17.60;83.70;;;;;;5052333;28;20136;-65
2023/06/17 06:37:13;;;;;;;0.20;0.20;;;17.60;83.00;;;;;;5046691;28;20048;-66
2023/06/17 06:39:39;;;;;;;0.10;0.10;;;17.70;83.00;;;;;;5044966;28;20107;-66
2023/06/17 06:42:05;;;;;;;0.00;0.00;;;17.70;82.20;;;;;;5046012;28;20052;-66
2023/06/17 06:44:31;;;;;;;0.00;0.00;;;17.70;82.10;;;;;;5039929;28;20112;-69
2023/06/17 06:46:57;;;;;;;0.10;0.10;;;17.80;81.80;;;;;;5049174;28;20056;-68
2023/06/17 06:49:23;;;;;;;0.00;0.00;;;17.80;81.70;;;;;;5039102;28;20383;-67
2023/06/17 06:51:48;;;;;;;0.00;0.00;;;17.80;82.00;;;;;;5039705;28;20403;-65
2023/06/17 06:54:14;;;;;;;0.22;0.22;;;17.80;82.10;;;;;;5014515;28;20045;-67
2023/06/17 06:56:39;;;;;;;0.00;0.00;;;17.90;81.90;;;;;;5049027;28;20045;-67
2023/06/17 06:59:05;;;;;;;0.77;0.77;;;18.00;81.90;;;;;;5048735;28;20048;-71
2023/06/17 07:01:30;;;;;;;0.00;0.00;;;17.90;82.30;;;;;;5049189;28;20131;-70
2023/06/17 07:03:56;;;;;;;0.00;0.00;;;17.90;82.20;;;;;;5048742;28;20048;-69
2023/06/17 07:06:22;;;;;;;0.00;0.00;;;18.00;81.90;;;;;;5048129;28;20063;-69
2023/06/17 07:08:47;;;;;;;0.40;0.40;;;18.10;81.30;;;;;;5048788;28;20520;-69
2023/06/17 07:11:13;;;;;;;0.00;0.00;;;18.10;81.10;;;;;;5048511;28;20068;-69
2023/06/17 07:13:38;;;;;;;0.00;0.00;;;18.20;81.00;;;;;;5049309;28;20637;-69
2023/06/17 07:16:04;;;;;;;0.00;0.00;;;18.20;81.20;;;;;;5048815;28;20057;-69
2023/06/17 07:18:30;;;;;;;0.10;0.10;;;18.30;81.10;;;;;;5048650;28;20124;-69
2023/06/17 07:20:56;;;;;;;0.00;0.00;;;18.40;81.20;;;;;;5052174;28;20076;-69
2023/06/17 07:23:23;;;;;;;0.00;0.00;;;18.50;80.70;;;;;;5056740;28;20094;-69
2023/06/17 07:25:49;;;;;;;0.05;0.05;;;18.50;80.50;;;;;;5050610;28;20520;-68
2023/06/17 07:28:14;;;;;;;0.13;0.13;;;18.60;80.80;;;;;;5049218;28;20060;-69
2023/06/17 07:30:40;;;;;;;0.00;0.00;;;18.50;80.50;;;;;;5048678;28;20485;-68
2023/06/17 07:33:06;;;;;;;0.00;0.00;;;18.60;80.50;;;;;;5048985;28;20520;-69
2023/06/17 07:35:32;;;;;;;0.00;0.00;;;18.60;80.00;;;;;;5050378;28;20053;-68
2023/06/17 07:37:58;;;;;;;0.03;0.03;;;18.50;80.30;;;;;;5051301;28;20045;-68
2023/06/17 07:40:23;;;;;;;0.00;0.00;;;18.60;80.40;;;;;;5047906;28;20561;-68
2023/06/17 07:42:49;;;;;;;0.00;0.00;;;18.60;80.20;;;;;;5048600;28;20410;-67
2023/06/17 07:45:15;;;;;;;0.00;0.00;;;18.80;80.10;;;;;;5047929;28;20080;-68
2023/06/17 07:47:40;;;;;;;0.00;0.00;;;18.90;79.90;;;;;;5048178;28;20052;-68
2023/06/17 07:50:10;;;;;;;2.92;1.25;;;19.00;79.60;;;;;;5029809;28;20056;-68
2023/06/17 07:52:36;;;;;;;0.00;0.00;;;19.10;79.20;;;;;;5032496;28;20046;-68
2023/06/17 07:55:05;;;;;;;0.00;0.00;;;19.10;79.10;;;;;;5036623;28;20103;-68
2023/06/17 07:57:30;;;;;;;0.00;0.00;;;19.20;79.00;;;;;;5048353;28;20079;-68
2023/06/17 07:59:57;;;;;;;0.00;0.00;;;19.30;78.90;;;;;;5030307;28;20088;-70
2023/06/17 08:02:22;;;;;;;0.00;0.00;;;19.40;78.50;;;;;;5030858;28;20493;-69
2023/06/17 08:04:48;;;;;;;0.00;0.00;;;19.40;78.00;;;;;;5015034;28;20095;-68
2023/06/17 08:07:14;;;;;;;0.00;0.00;;;19.50;77.70;;;;;;5052088;28;20041;-69
2023/06/17 08:09:40;;;;;;;2.92;1.25;;;19.50;77.70;;;;;;5034026;28;20061;-69
2023/06/17 08:12:06;;;;;;;0.65;0.28;;;19.60;77.50;;;;;;5051498;28;20099;-69
2023/06/17 08:14:31;;;;;;;0.00;0.00;;;19.60;77.40;;;;;;5052007;28;20182;-69
2023/06/17 08:16:57;;;;;;;0.00;0.00;;;19.70;77.30;;;;;;5051562;28;20033;-68
2023/06/17 08:19:23;;;;;;;0.00;0.00;;;19.80;77.20;;;;;;5034008;28;20486;-69
2023/06/17 08:21:49;;;;;;;0.70;0.57;;;19.90;76.90;;;;;;5051345;28;20044;-68
2023/06/17 08:24:23;;;;;;;0.35;0.32;;;19.90;76.40;;;;;;5052029;28;20080;-68
2023/06/17 08:26:49;;;;;;;0.00;0.00;;;20.00;76.70;;;;;;5051460;28;20045;-68
2023/06/17 08:29:15;;;;;;;1.90;0.77;;;20.00;76.30;;;;;;5051290;28;20052;-68
2023/06/17 08:31:42;;;;;;;0.30;0.30;;;20.00;76.70;;;;;;5048795;28;20053;-68
2023/06/17 08:34:08;;;;;;;0.00;0.00;;;20.00;75.80;;;;;;5051834;28;20047;-69
2023/06/17 08:36:34;;;;;;;0.38;0.38;;;20.00;75.80;;;;;;5051550;28;20052;-68
2023/06/17 08:39:00;;;;;;;0.17;0.17;;;20.00;76.00;;;;;;5051312;28;20437;-69
2023/06/17 08:41:27;;;;;;;0.57;0.57;;;20.10;76.00;;;;;;5050373;28;20049;-68
2023/06/17 08:43:57;;;;;;;0.00;0.00;;;20.10;76.20;;;;;;5042160;28;20041;-68
2023/06/17 08:46:24;;;;;;;0.00;0.00;;;20.20;76.20;;;;;;5050079;28;20498;-68
2023/06/17 08:48:51;;;;;;;0.32;0.25;;;20.20;76.10;;;;;;5046397;28;20099;-68
2023/06/17 08:51:18;;;;;;;0.00;0.00;;;20.30;75.50;;;;;;5046539;28;20060;-67
2023/06/17 08:53:44;;;;;;;0.00;0.00;;;20.30;75.30;;;;;;5049897;28;20056;-68
2023/06/17 08:56:12;;;;;;;0.00;0.00;;;20.50;75.30;;;;;;5049329;28;20045;-67
2023/06/17 08:58:38;;;;;;;0.08;0.08;;;20.50;74.60;;;;;;5049580;28;20079;-68
2023/06/17 09:01:06;;;;;;;0.00;0.00;;;20.50;74.20;;;;;;5049221;28;20092;-71
2023/06/17 09:03:38;;;;;;;0.35;0.22;;;20.50;74.20;;;;;;5025597;28;21086;-69
2023/06/17 09:06:24;;;;;;;0.00;0.00;;;20.60;73.90;;;;;;5027605;28;20436;-70
2023/06/17 09:08:58;;;;;;;2.30;2.15;;;20.70;73.30;;;;;;5031537;28;20056;-70
2023/06/17 09:11:28;;;;;;;0.00;0.00;;;20.80;73.00;;;;;;5035303;28;20040;-69
2023/06/17 09:13:55;;;;;;;0.10;0.10;;;21.00;72.90;;;;;;5040680;28;20049;-67
2023/06/17 09:16:35;;;;;;;0.15;0.15;;;21.00;72.70;;;;;;5050135;28;20048;-68
2023/06/17 09:19:03;;;;;;;0.00;0.00;;;21.10;71.80;;;;;;5050467;28;20090;-67
2023/06/17 09:21:30;;;;;;;0.10;0.10;;;21.10;72.50;;;;;;5050362;28;20505;-68
2023/06/17 09:24:04;;;;;;;0.00;0.00;;;21.10;72.60;;;;;;5050090;28;20489;-68
2023/06/17 09:26:34;;;;;;;0.30;0.30;;;21.10;72.00;;;;;;5050271;28;20052;-68
2023/06/17 09:29:08;;;;;;;0.00;0.00;;;21.20;72.40;;;;;;5050438;28;20502;-67
2023/06/17 09:31:50;;;;;;;0.15;0.15;;;21.20;72.40;;;;;;5032430;28;20238;-68
2023/06/17 09:34:16;;;;;;;0.10;0.10;;;21.40;73.10;;;;;;5050109;28;20465;-67
2023/06/17 09:36:42;;;;;;;0.00;0.00;;;21.40;72.60;;;;;;5050301;28;20033;-68
2023/06/17 09:39:12;;;;;;;1.08;1.00;;;21.30;71.80;;;;;;5012878;28;1061795;-68
2023/06/17 09:41:42;;;;;;;0.08;0.08;;;21.40;72.00;;;;;;5051493;28;20049;-67
2023/06/17 09:44:08;;;;;;;0.00;0.00;;;21.30;70.20;;;;;;5051338;28;20056;-68
2023/06/17 09:46:46;;;;;;;0.55;0.55;;;21.40;70.70;;;;;;5051019;28;20041;-67
2023/06/17 09:49:15;;;;;;;0.25;0.20;;;21.50;70.90;;;;;;5050718;28;20048;-68
2023/06/17 09:51:41;;;;;;;0.00;0.00;;;21.50;70.80;;;;;;5050878;28;20095;-67
2023/06/17 09:54:08;;;;;;;0.00;0.00;;;21.60;71.10;;;;;;5050506;28;20049;-68
2023/06/17 09:56:35;;;;;;;0.00;0.00;;;21.70;71.30;;;;;;5050786;28;20414;-68
2023/06/17 09:59:07;;;;;;;0.10;0.10;;;21.80;71.30;;;;;;5050744;28;20057;-67
2023/06/17 10:01:38;;;;;;;;;;;21.90;71.20;;;;;;5051299;28;20131;-67
2023/06/17 10:04:04;;;;;;;2.42;1.27;;;22.00;70.10;;;;;;5050692;28;20587;-68
2023/06/17 10:06:30;;;;;;;0.13;0.13;;;22.00;69.30;;;;;;5050178;28;20128;-67
2023/06/17 10:08:57;;;;;;;0.00;0.00;;;21.90;69.90;;;;;;5050730;28;20142;-68
2023/06/17 10:11:25;;;;;;;0.00;0.00;;;22.00;70.10;;;;;;5050452;28;20048;-67
2023/06/17 10:14:05;;;;;;;0.00;0.00;;;22.10;70.40;;;;;;5050238;28;20130;-67
2023/06/17 10:16:36;;;;;;;0.43;0.30;;;22.20;70.30;;;;;;5049935;28;20486;-67
2023/06/17 10:19:05;;;;;;;0.00;0.00;;;22.30;69.90;;;;;;5050361;28;20059;-68
2023/06/17 10:21:35;;;;;;;0.00;0.00;;;22.20;69.30;;;;;;5050260;28;20045;-68
2023/06/17 10:24:03;;;;;;;0.25;0.22;;;22.30;69.50;;;;;;5050397;28;20517;-68
2023/06/17 10:26:30;;;;;;;0.00;0.00;;;22.40;69.30;;;;;;5048995;28;20049;-68
2023/06/17 10:29:09;;;;;;;0.00;0.00;;;22.40;68.40;;;;;;5050223;28;20049;-68
2023/06/17 10:31:40;;;;;;;0.00;0.00;;;22.50;68.60;;;;;;5050164;28;20056;-67
2023/06/17 10:34:07;;;;;;;0.10;0.10;;;22.60;68.30;;;;;;5049911;28;20052;-67
2023/06/17 10:36:35;;;;;;;0.00;0.00;;;22.50;66.20;;;;;;5033530;28;20071;-67
2023/06/17 10:39:07;;;;;;;0.10;0.10;;;22.60;67.60;;;;;;5015888;28;20053;-68
2023/06/17 10:41:57;;;;;;;0.00;0.00;;;22.70;68.30;;;;;;5050006;28;20100;-68
2023/06/17 10:44:35;;;;;;;0.75;0.70;;;22.80;67.40;;;;;;5032377;28;20049;-68
2023/06/17 10:47:15;;;;;;;0.10;0.10;;;22.90;67.30;;;;;;5049627;28;20053;-67
2023/06/17 10:49:41;;;;;;;0.00;0.00;;;23.00;67.30;;;;;;5049903;28;20037;-68
2023/06/17 10:52:12;;;;;;;0.00;0.00;;;23.00;66.50;;;;;;5049663;28;20041;-67
2023/06/17 10:54:45;;;;;;;;;;;23.00;66.70;;;;;;5050067;28;20379;-68
2023/06/17 10:57:11;;;;;;;0.00;0.00;;;23.10;66.90;;;;;;5049378;28;20015;-67
2023/06/17 10:59:37;;;;;;;0.00;0.00;;;23.30;67.10;;;;;;5049250;28;20128;-67
2023/06/17 11:02:07;;;;;;;0.00;0.00;;;23.40;66.60;;;;;;5049599;28;20045;-68
2023/06/17 11:04:40;;;;;;;0.00;0.00;;;23.40;65.80;;;;;;5049556;28;20048;-67
2023/06/17 11:07:06;;;;;;;0.00;0.00;;;23.50;64.80;;;;;;5049491;28;20502;-68
2023/06/17 11:09:33;;;;;;;0.00;0.00;;;23.50;63.70;;;;;;5049489;28;20052;-68
2023/06/17 11:12:02;;;;;;;0.00;0.00;;;23.50;64.70;;;;;;5048548;28;20048;-64
2023/06/17 11:14:29;;;;;;;0.00;0.00;;;23.60;63.50;;;;;;5030014;28;20501;-68
2023/06/17 11:16:54;;;;;;;2.63;0.35;;;23.40;63.80;;;;;;5043904;28;20536;-67
2023/06/17 11:19:20;;;;;;;0.50;0.20;;;23.50;65.00;;;;;;5045195;28;20037;-68
2023/06/17 11:21:50;;;;;;;1.45;0.52;;;23.60;64.20;;;;;;5048017;28;20048;-68
2023/06/17 11:24:17;;;;;;;0.20;0.20;;;23.70;63.40;;;;;;5046171;28;20090;-67
2023/06/17 11:26:42;;;;;;;0.00;0.00;;;23.80;63.60;;;;;;5047193;28;20091;-67
2023/06/17 11:29:09;;;;;;;0.10;0.10;;;24.00;63.80;;;;;;5046009;28;20166;-67
2023/06/17 11:31:38;;;;;;;0.10;0.10;;;24.10;64.30;;;;;;5041029;28;21103;-67
2023/06/17 11:34:07;;;;;;;0.13;0.13;;;24.20;62.90;;;;;;5038531;28;20048;-68
2023/06/17 11:36:34;;;;;;;0.13;0.13;;;24.20;63.80;;;;;;5024596;28;20056;-68
2023/06/17 11:38:59;;;;;;;0.00;0.00;;;24.30;63.10;;;;;;5045824;28;20057;-68
2023/06/17 11:41:26;;;;;;;0.05;0.05;;;24.30;62.80;;;;;;5029009;28;20053;-67
2023/06/17 11:43:51;;;;;;;0.00;0.00;;;24.30;61.50;;;;;;5029616;28;20045;-68
2023/06/17 11:46:21;;;;;;;0.00;0.00;;;24.40;60.30;;;;;;5040997;28;20045;-68
2023/06/17 11:48:48;;;;;;;0.00;0.00;;;24.50;60.70;;;;;;5047583;28;20890;-68
2023/06/17 11:51:15;;;;;;;0.17;0.17;;;24.60;59.70;;;;;;5045377;28;20099;-68
2023/06/17 11:53:45;;;;;;;0.32;0.20;;;24.70;60.90;;;;;;5030014;28;20037;-68
2023/06/17 11:56:13;;;;;;;0.00;0.00;;;24.80;59.80;;;;;;5043374;28;20045;-68
2023/06/17 11:58:40;;;;;;;0.00;0.00;;;24.90;60.10;;;;;;5048141;28;20052;-68
2023/06/17 12:01:08;;;;;;;0.15;0.15;;;25.00;59.20;;;;;;5047436;28;20045;-69
2023/06/17 12:03:34;;;;;;;4.38;0.85;;;25.00;59.50;;;;;;5048012;28;20049;-68
2023/06/17 12:06:00;;;;;;;0.00;0.00;;;25.00;59.30;;;;;;5041896;28;20047;-69
2023/06/17 12:08:36;;;;;;;0.00;0.00;;;25.00;60.00;;;;;;5048453;28;20374;-68
2023/06/17 12:11:07;;;;;;;0.20;0.20;;;25.00;60.40;;;;;;5029464;28;20124;-68
2023/06/17 12:13:39;;;;;;;0.00;0.00;;;25.00;59.50;;;;;;5046917;28;20041;-68
2023/06/17 12:16:10;;;;;;;0.00;0.00;;;25.10;59.90;;;;;;5047492;28;20048;-68
2023/06/17 12:18:36;;;;;;;0.10;0.10;;;25.20;60.10;;;;;;5046910;28;20075;-67
2023/06/17 12:21:09;;;;;;;0.10;0.10;;;25.40;60.60;;;;;;5027967;28;20078;-68
2023/06/17 12:23:34;;;;;;;0.00;0.00;;;25.40;58.00;;;;;;5047465;28;20033;-68
2023/06/17 12:26:00;;;;;;;0.30;0.30;;;25.50;57.40;;;;;;5047313;28;20044;-68
2023/06/17 12:28:26;;;;;;;0.08;0.08;;;25.50;56.90;;;;;;5046475;28;20091;-68
2023/06/17 12:30:52;;;;;;;0.32;0.30;;;25.10;56.70;;;;;;5044122;28;20119;-68
2023/06/17 12:33:17;;;;;;;1.17;1.08;;;25.10;57.60;;;;;;5047114;28;20160;-68
2023/06/17 12:35:43;;;;;;;0.52;0.20;;;25.10;56.10;;;;;;5046870;28;20025;-67
2023/06/17 12:38:09;;;;;;;0.08;0.08;;;25.20;57.50;;;;;;5047262;28;20064;-68
2023/06/17 12:40:35;;;;;;;0.00;0.00;;;25.40;56.60;;;;;;5047203;28;20049;-68
2023/06/17 12:43:01;;;;;;;2.20;0.57;;;25.50;56.80;;;;;;5047419;28;20049;-68
2023/06/17 12:45:27;;;;;;;0.00;0.00;;;25.50;55.10;;;;;;5044647;28;20045;-69
2023/06/17 12:47:52;;;;;;;0.00;0.00;;;25.60;56.50;;;;;;5047251;28;20128;-68